createdAt,value
2023-02-02T00:02:57.638Z,3.90
2023-02-02T00:06:00.221Z,3.80
2023-02-02T00:09:03.796Z,3.35
2023-02-02T00:12:06.425Z,3.60
2023-02-02T00:15:09.430Z,3.80
2023-02-02T00:18:12.423Z,3.40
2023-02-02T00:21:14.938Z,3.45
2023-02-02T00:24:18.302Z,3.85
2023-02-02T00:27:20.908Z,4.15
2023-02-02T00:30:23.841Z,3.53
2023-02-02T00:33:26.442Z,3.27
2023-02-02T00:36:29.091Z,3.13
2023-02-02T00:39:31.775Z,3.50
2023-02-02T00:42:34.379Z,4.20
2023-02-02T00:45:38.345Z,2.97
2023-02-02T00:48:40.883Z,3.40
2023-02-02T00:51:43.423Z,3.05
2023-02-02T00:54:46.125Z,3.60
2023-02-02T00:57:48.825Z,3.47
2023-02-02T01:00:52.355Z,3.27
2023-02-02T01:03:55.113Z,2.83
2023-02-02T01:06:57.714Z,3.53
2023-02-02T01:10:00.358Z,3.90
2023-02-02T01:13:03.245Z,3.80
2023-02-02T01:16:07.778Z,4.23
2023-02-02T01:19:12.655Z,4.53
2023-02-02T01:22:15.244Z,4.32
2023-02-02T01:25:17.934Z,5.03
2023-02-02T01:28:20.514Z,5.30
2023-02-02T01:31:23.210Z,5.20
2023-02-02T01:34:25.782Z,6.17
2023-02-02T01:37:28.333Z,5.93
2023-02-02T01:40:31.039Z,6.72
2023-02-02T01:43:45.652Z,6.05
2023-02-02T01:46:48.291Z,5.00
2023-02-02T01:49:51.433Z,3.20
2023-02-02T01:52:56.044Z,4.00
2023-02-02T01:55:59.202Z,2.35
2023-02-02T01:59:02.613Z,2.60
2023-02-02T02:02:05.248Z,2.43
2023-02-02T02:05:09.425Z,2.53
2023-02-02T02:08:35.312Z,3.00
2023-02-02T02:11:38.221Z,4.18
2023-02-02T02:15:00.234Z,3.47
2023-02-02T02:18:21.452Z,5.90
2023-02-02T02:21:59.225Z,4.43
2023-02-02T02:25:52.263Z,5.85
2023-02-02T02:29:22.784Z,5.88
2023-02-02T02:32:35.194Z,6.78
2023-02-02T02:36:01.036Z,5.33
2023-02-02T02:39:17.966Z,4.00
2023-02-02T02:42:23.303Z,2.10
2023-02-02T02:45:28.062Z,1.33
2023-02-02T02:48:31.835Z,1.00
2023-02-02T02:51:49.561Z,1.27
2023-02-02T02:54:58.513Z,1.20
2023-02-02T02:58:10.599Z,1.10
2023-02-02T03:01:32.289Z,0.90
2023-02-02T03:04:43.253Z,1.10
2023-02-02T03:07:50.706Z,1.23
2023-02-02T03:10:54.132Z,0.90
2023-02-02T03:13:57.033Z,1.27
2023-02-02T03:16:59.508Z,0.90
2023-02-02T03:20:02.053Z,1.40
2023-02-02T03:23:04.613Z,1.07
2023-02-02T03:26:07.497Z,0.97
2023-02-02T03:29:10.302Z,0.98
2023-02-02T03:32:12.900Z,1.33
2023-02-02T03:35:15.474Z,0.73
2023-02-02T03:38:18.178Z,1.10
2023-02-02T03:41:20.792Z,1.00
2023-02-02T03:44:23.427Z,0.85
2023-02-02T03:47:29.010Z,0.60
2023-02-02T03:50:31.726Z,0.68
2023-02-02T03:53:34.346Z,1.00
2023-02-02T03:56:36.991Z,0.70
2023-02-02T03:59:39.613Z,0.70
2023-02-02T04:02:42.309Z,0.80
2023-02-02T04:05:44.966Z,0.70
2023-02-02T04:08:47.563Z,0.80
2023-02-02T04:11:50.198Z,1.00
2023-02-02T04:14:52.785Z,0.82
2023-02-02T04:17:56.690Z,0.80
2023-02-02T04:21:00.376Z,0.70
2023-02-02T04:24:02.965Z,1.00
2023-02-02T04:27:05.616Z,0.80
2023-02-02T04:30:09.160Z,0.70
2023-02-02T04:33:11.706Z,0.70
2023-02-02T04:36:14.602Z,0.95
2023-02-02T04:39:17.158Z,0.73
2023-02-02T04:42:19.731Z,0.80
2023-02-02T04:45:23.225Z,1.00
2023-02-02T04:48:26.005Z,0.77
2023-02-02T04:51:28.589Z,0.70
2023-02-02T04:54:31.181Z,0.87
2023-02-02T04:57:33.730Z,0.70
2023-02-02T05:00:36.342Z,0.75
2023-02-02T05:03:38.983Z,0.80
2023-02-02T05:06:41.579Z,0.85
2023-02-02T05:09:44.139Z,0.70
2023-02-02T05:12:46.756Z,1.03
2023-02-02T05:15:49.446Z,0.82
2023-02-02T05:18:54.220Z,1.80
2023-02-02T05:21:56.772Z,0.95
2023-02-02T05:24:59.367Z,1.07
2023-02-02T05:28:02.188Z,1.10
2023-02-02T05:31:07.927Z,0.95
2023-02-02T05:34:11.639Z,0.70
2023-02-02T05:37:14.295Z,2.00
2023-02-02T05:40:17.115Z,0.70
2023-02-02T05:43:21.591Z,0.90
2023-02-02T05:46:24.236Z,1.10
2023-02-02T05:49:26.886Z,0.73
2023-02-02T05:52:32.003Z,2.30
2023-02-02T05:55:34.519Z,1.27
2023-02-02T05:58:37.131Z,0.90
2023-02-02T06:01:39.827Z,1.00
2023-02-02T06:04:42.535Z,1.70
2023-02-02T06:07:45.208Z,0.93
2023-02-02T06:10:47.927Z,1.47
2023-02-02T06:13:50.811Z,0.70
2023-02-02T06:16:53.461Z,0.90
2023-02-02T06:20:15.020Z,0.93
2023-02-02T06:23:17.670Z,1.13
2023-02-02T06:26:20.297Z,0.83
2023-02-02T06:29:23.147Z,1.20
2023-02-02T06:32:25.826Z,1.10
2023-02-02T06:35:28.557Z,0.80
2023-02-02T06:38:31.547Z,1.00
2023-02-02T06:41:35.246Z,1.00
2023-02-02T06:44:37.907Z,1.10
2023-02-02T06:47:40.477Z,1.30
2023-02-02T06:50:43.192Z,1.08
2023-02-02T06:53:49.502Z,1.65
2023-02-02T06:56:52.200Z,1.10
2023-02-02T06:59:54.814Z,1.27
2023-02-02T07:02:57.759Z,1.63
2023-02-02T07:06:10.264Z,0.85
2023-02-02T07:09:13.035Z,1.10
2023-02-02T07:12:15.641Z,1.10
2023-02-02T07:15:19.012Z,0.80
2023-02-02T07:18:22.613Z,1.10
2023-02-02T07:21:29.534Z,1.15
2023-02-02T07:24:33.040Z,0.90
2023-02-02T07:27:35.629Z,1.20
2023-02-02T07:30:38.370Z,1.20
2023-02-02T07:33:45.258Z,1.20
2023-02-02T07:36:47.913Z,1.20
2023-02-02T07:39:50.495Z,1.00
2023-02-02T07:42:53.043Z,1.17
2023-02-02T07:46:01.974Z,1.13
2023-02-02T07:49:04.506Z,1.38
2023-02-02T07:52:07.226Z,1.70
2023-02-02T07:55:26.473Z,0.80
2023-02-02T07:58:29.579Z,1.10
2023-02-02T08:01:32.485Z,1.07
2023-02-02T08:04:35.122Z,0.77
2023-02-02T08:07:37.729Z,1.40
2023-02-02T08:10:40.378Z,1.08
2023-02-02T08:13:44.147Z,1.30
2023-02-02T08:16:46.822Z,1.10
2023-02-02T08:19:49.487Z,0.90
2023-02-02T08:22:52.123Z,0.75
2023-02-02T08:25:56.016Z,0.88
2023-02-02T08:29:01.596Z,1.23
2023-02-02T08:32:04.959Z,1.03
2023-02-02T08:35:07.925Z,1.58
2023-02-02T08:38:10.756Z,1.10
2023-02-02T08:41:16.569Z,0.80
2023-02-02T08:44:20.143Z,0.90
2023-02-02T08:47:29.002Z,1.13
2023-02-02T08:50:31.536Z,0.90
2023-02-02T08:53:34.543Z,1.05
2023-02-02T08:56:37.200Z,1.00
2023-02-02T08:59:40.241Z,1.10
2023-02-02T09:02:42.881Z,1.10
2023-02-02T09:05:45.476Z,0.93
2023-02-02T09:08:48.527Z,1.00
2023-02-02T09:11:51.184Z,1.60
2023-02-02T09:14:53.891Z,1.20
2023-02-02T09:17:56.938Z,0.97
2023-02-02T09:21:01.108Z,1.10
2023-02-02T09:24:12.201Z,0.80
2023-02-02T09:27:14.857Z,0.77
2023-02-02T09:30:17.843Z,1.27
2023-02-02T09:33:20.376Z,0.90
2023-02-02T09:36:24.387Z,0.90
2023-02-02T09:39:27.175Z,1.45
2023-02-02T09:42:35.387Z,1.20
2023-02-02T09:45:46.883Z,1.33
2023-02-02T09:49:02.410Z,1.23
2023-02-02T09:52:34.988Z,1.00
2023-02-02T09:55:40.376Z,1.25
2023-02-02T09:58:53.235Z,1.30
2023-02-02T10:01:58.550Z,1.20
2023-02-02T10:05:08.836Z,0.90
2023-02-02T10:08:20.571Z,1.15
2023-02-02T10:11:55.098Z,1.50
2023-02-02T10:15:38.585Z,1.00
2023-02-02T10:18:43.298Z,1.13
2023-02-02T10:22:03.070Z,1.30
2023-02-02T10:25:06.299Z,1.40
2023-02-02T10:28:40.218Z,1.10
2023-02-02T10:32:04.052Z,1.50
2023-02-02T10:35:37.816Z,1.27
2023-02-02T10:38:58.405Z,1.23
2023-02-02T10:42:30.530Z,1.63
2023-02-02T10:45:33.468Z,1.30
2023-02-02T10:48:36.355Z,1.58
2023-02-02T10:51:41.350Z,1.30
2023-02-02T10:55:04.167Z,1.40
2023-02-02T10:58:13.164Z,1.13
2023-02-02T11:01:18.366Z,1.30
2023-02-02T11:04:40.786Z,1.85
2023-02-02T11:07:43.545Z,1.27
2023-02-02T11:10:48.611Z,1.20
2023-02-02T11:13:54.179Z,1.08
2023-02-02T11:17:06.104Z,1.13
2023-02-02T11:20:35.423Z,1.42
2023-02-02T11:23:38.126Z,1.80
2023-02-02T11:27:02.185Z,1.50
2023-02-02T11:30:12.799Z,1.38
2023-02-02T11:33:29.045Z,1.25
2023-02-02T11:36:31.724Z,1.30
2023-02-02T11:39:34.369Z,0.83
2023-02-02T11:42:37.052Z,0.83
2023-02-02T11:45:41.993Z,1.40
2023-02-02T11:49:07.945Z,1.30
2023-02-02T11:52:18.336Z,1.20
2023-02-02T11:55:27.431Z,1.30
2023-02-02T11:58:50.055Z,1.73
2023-02-02T12:02:10.596Z,2.30
2023-02-02T12:05:23.843Z,1.00
2023-02-02T12:08:26.395Z,1.25
2023-02-02T12:11:52.241Z,2.00
2023-02-02T12:15:19.985Z,1.50
2023-02-02T12:18:52.350Z,0.80
2023-02-02T12:22:17.709Z,1.60
2023-02-02T12:25:44.951Z,1.50
2023-02-02T12:28:53.317Z,1.30
2023-02-02T12:32:24.266Z,0.90
2023-02-02T12:35:51.623Z,1.10
2023-02-02T12:39:09.138Z,1.40
2023-02-02T12:42:12.164Z,1.20
2023-02-02T12:45:21.830Z,1.30
2023-02-02T12:48:42.484Z,1.20
2023-02-02T12:52:07.335Z,1.55
2023-02-02T12:55:16.388Z,1.65
2023-02-02T12:58:45.615Z,1.10
2023-02-02T13:01:51.032Z,0.90
2023-02-02T13:04:59.720Z,2.17
2023-02-02T13:08:07.291Z,1.23
2023-02-02T13:11:30.158Z,1.30
2023-02-02T13:14:47.182Z,1.33
2023-02-02T13:17:59.565Z,1.20
2023-02-02T13:21:03.624Z,1.83
2023-02-02T13:24:08.172Z,1.50
2023-02-02T13:27:14.923Z,1.58
2023-02-02T13:30:30.089Z,0.98
2023-02-02T13:33:35.804Z,3.27
2023-02-02T13:36:40.102Z,1.67
2023-02-02T13:39:47.473Z,1.08
2023-02-02T13:42:55.283Z,1.27
2023-02-02T13:46:12.422Z,1.60
2023-02-02T13:49:29.220Z,2.20
2023-02-02T13:53:02.729Z,1.30
2023-02-02T13:56:25.924Z,2.70
2023-02-02T14:00:03.527Z,3.53
2023-02-02T14:03:33.922Z,1.60
2023-02-02T14:07:00.397Z,1.47
2023-02-02T14:10:04.581Z,3.23
2023-02-02T14:13:32.953Z,2.72
2023-02-02T14:16:36.001Z,2.53
2023-02-02T14:19:41.557Z,3.10
2023-02-02T14:22:54.822Z,3.90
2023-02-02T14:26:42.737Z,1.30
2023-02-02T14:29:47.224Z,2.00
2023-02-02T14:32:50.658Z,3.45
2023-02-02T14:36:01.443Z,8.35
2023-02-02T14:39:16.706Z,1.53
2023-02-02T14:43:03.480Z,1.10
2023-02-02T14:46:15.806Z,10.82
2023-02-02T14:49:21.034Z,3.60
2023-02-02T14:52:23.779Z,4.35
2023-02-02T14:55:27.710Z,4.17
2023-02-02T14:58:30.323Z,4.50
2023-02-02T15:01:34.659Z,5.60
2023-02-02T15:04:37.529Z,8.00
2023-02-02T15:07:53.004Z,7.68
2023-02-02T15:10:56.787Z,2.40
2023-02-02T15:14:07.232Z,2.20
2023-02-02T15:17:25.137Z,1.50
2023-02-02T15:20:32.688Z,1.67
2023-02-02T15:23:39.726Z,3.30
2023-02-02T15:26:43.072Z,4.93
2023-02-02T15:29:49.593Z,5.53
2023-02-02T15:32:52.973Z,4.03
2023-02-02T15:35:57.423Z,6.45
2023-02-02T15:39:04.056Z,2.72
2023-02-02T15:42:33.402Z,5.77
2023-02-02T15:45:48.932Z,9.17
2023-02-02T15:49:35.759Z,3.30
2023-02-02T15:52:46.886Z,1.70
2023-02-02T15:55:50.045Z,2.85
2023-02-02T15:58:55.747Z,1.80
2023-02-02T16:02:07.084Z,1.80
2023-02-02T16:05:38.521Z,1.50
2023-02-02T16:08:42.051Z,1.95
2023-02-02T16:11:47.072Z,3.08
2023-02-02T16:14:51.942Z,2.30
2023-02-02T16:18:02.961Z,1.93
2023-02-02T16:21:14.929Z,2.85
2023-02-02T16:24:24.192Z,2.97
2023-02-02T16:27:29.194Z,4.90
2023-02-02T16:30:37.998Z,2.50
2023-02-02T16:33:45.598Z,2.77
2023-02-02T16:37:32.347Z,1.92
2023-02-02T16:40:35.179Z,3.47
2023-02-02T16:43:42.320Z,2.65
2023-02-02T16:46:47.916Z,2.17
2023-02-02T16:49:50.623Z,2.70
2023-02-02T16:53:05.149Z,2.83
2023-02-02T16:56:07.917Z,2.40
2023-02-02T16:59:37.807Z,6.30
2023-02-02T17:02:42.343Z,2.63
2023-02-02T17:05:54.232Z,1.83
2023-02-02T17:08:56.926Z,1.80
2023-02-02T17:12:12.202Z,2.58
2023-02-02T17:15:17.025Z,2.20
2023-02-02T17:18:19.591Z,2.17
2023-02-02T17:21:24.561Z,1.40
2023-02-02T17:24:27.844Z,1.52
2023-02-02T17:27:34.118Z,3.67
2023-02-02T17:30:37.364Z,1.77
2023-02-02T17:33:40.403Z,2.30
2023-02-02T17:36:45.892Z,1.87
2023-02-02T17:39:50.532Z,1.85
2023-02-02T17:42:53.555Z,2.92
2023-02-02T17:45:56.289Z,3.30
2023-02-02T17:48:58.892Z,4.10
2023-02-02T17:52:01.432Z,2.20
2023-02-02T17:55:18.113Z,6.15
2023-02-02T17:58:20.835Z,2.72
2023-02-02T18:01:23.611Z,1.60
2023-02-02T18:04:27.033Z,2.60
2023-02-02T18:07:29.693Z,1.67
2023-02-02T18:10:32.640Z,1.02
2023-02-02T18:13:35.321Z,2.35
2023-02-02T18:16:37.883Z,2.83
2023-02-02T18:19:44.906Z,2.17
2023-02-02T18:22:48.757Z,1.90
2023-02-02T18:25:52.963Z,1.73
2023-02-02T18:28:55.633Z,1.00
2023-02-02T18:31:59.378Z,1.23
2023-02-02T18:35:02.429Z,1.50
2023-02-02T18:38:05.009Z,1.23
2023-02-02T18:41:08.113Z,1.50
2023-02-02T18:44:10.827Z,1.30
2023-02-02T18:47:13.484Z,1.35
2023-02-02T18:50:16.519Z,1.43
2023-02-02T18:53:19.550Z,1.50
2023-02-02T18:56:22.125Z,2.08
2023-02-02T18:59:24.942Z,1.98
2023-02-02T19:02:27.695Z,2.20
2023-02-02T19:05:49.018Z,1.33
2023-02-02T19:08:51.962Z,1.47
2023-02-02T19:11:55.036Z,1.30
2023-02-02T19:14:57.777Z,1.27
2023-02-02T19:18:00.883Z,1.13
2023-02-02T19:21:04.937Z,1.10
2023-02-02T19:24:12.756Z,1.30
2023-02-02T19:27:18.086Z,1.45
2023-02-02T19:30:23.154Z,2.15
2023-02-02T19:33:39.654Z,1.25
2023-02-02T19:36:46.830Z,1.00
2023-02-02T19:39:49.768Z,1.20
2023-02-02T19:43:14.942Z,1.17
2023-02-02T19:46:23.184Z,1.20
2023-02-02T19:49:34.432Z,1.15
2023-02-02T19:52:37.183Z,1.63
2023-02-02T19:55:40.776Z,1.57
2023-02-02T19:58:49.281Z,1.83
2023-02-02T20:01:51.953Z,1.20
2023-02-02T20:05:22.202Z,1.10
2023-02-02T20:08:41.513Z,1.20
2023-02-02T20:11:45.747Z,1.40
2023-02-02T20:14:48.918Z,1.10
2023-02-02T20:17:54.341Z,1.88
2023-02-02T20:20:57.232Z,1.17
2023-02-02T20:24:00.206Z,1.50
2023-02-02T20:27:23.528Z,1.37
2023-02-02T20:30:30.960Z,1.40
2023-02-02T20:33:33.795Z,1.35
2023-02-02T20:36:40.958Z,1.10
2023-02-02T20:39:48.003Z,1.10
2023-02-02T20:42:51.396Z,2.13
2023-02-02T20:45:54.277Z,1.35
2023-02-02T20:48:57.066Z,1.33
2023-02-02T20:52:02.260Z,1.10
2023-02-02T20:55:05.323Z,1.30
2023-02-02T20:58:09.912Z,1.60
2023-02-02T21:01:12.905Z,1.13
2023-02-02T21:04:15.886Z,1.48
2023-02-02T21:07:21.436Z,1.05
2023-02-02T21:10:25.922Z,1.23
2023-02-02T21:13:29.001Z,1.40
2023-02-02T21:16:31.764Z,1.48
2023-02-02T21:19:34.448Z,1.30
2023-02-02T21:22:37.188Z,1.40
2023-02-02T21:25:39.766Z,1.60
2023-02-02T21:28:42.381Z,1.97
2023-02-02T21:31:45.302Z,1.55
2023-02-02T21:34:49.377Z,1.80
2023-02-02T21:37:55.268Z,1.17
2023-02-02T21:40:59.654Z,1.70
2023-02-02T21:44:02.548Z,1.37
2023-02-02T21:47:27.239Z,1.50
2023-02-02T21:50:35.946Z,1.40
2023-02-02T21:53:38.494Z,1.92
2023-02-02T21:56:42.151Z,2.00
2023-02-02T21:59:46.846Z,1.50
2023-02-02T22:02:51.218Z,1.80
2023-02-02T22:06:16.913Z,1.92
2023-02-02T22:09:24.767Z,1.90
2023-02-02T22:12:28.690Z,2.00
2023-02-02T22:15:34.519Z,2.17
2023-02-02T22:18:37.159Z,2.00
2023-02-02T22:21:39.723Z,2.08
2023-02-02T22:24:44.309Z,3.00
2023-02-02T22:28:01.564Z,2.90
2023-02-02T22:31:05.237Z,2.03
2023-02-02T22:34:07.975Z,2.00
2023-02-02T22:37:10.571Z,1.90
2023-02-02T22:40:13.802Z,1.95
2023-02-02T22:43:17.635Z,2.47
2023-02-02T22:46:20.167Z,1.83
2023-02-02T22:49:22.770Z,1.75
2023-02-02T22:52:25.406Z,2.10
2023-02-02T22:55:28.137Z,1.73
2023-02-02T22:58:30.728Z,1.70
2023-02-02T23:01:33.281Z,1.70
2023-02-02T23:04:35.810Z,1.67
2023-02-02T23:07:39.670Z,2.03
2023-02-02T23:10:42.263Z,1.90
2023-02-02T23:13:44.792Z,1.70
2023-02-02T23:16:47.395Z,2.00
2023-02-02T23:19:49.964Z,2.38
2023-02-02T23:22:52.498Z,2.20
2023-02-02T23:25:55.158Z,2.30
2023-02-02T23:28:57.702Z,1.53
2023-02-02T23:32:00.315Z,1.83
2023-02-02T23:35:03.891Z,1.60
2023-02-02T23:38:06.424Z,2.00
2023-02-02T23:41:08.972Z,1.88
2023-02-02T23:44:11.725Z,2.07
2023-02-02T23:47:14.414Z,1.87
2023-02-02T23:50:16.995Z,2.42
2023-02-02T23:53:19.895Z,2.15
2023-02-02T23:56:22.622Z,2.72
2023-02-02T23:59:25.245Z,2.53
